createdAt,value
2018-06-08T00:01:37.836Z,20.30
2018-06-08T00:04:06.891Z,20.30
2018-06-08T00:06:35.843Z,20.20
2018-06-08T00:09:08.037Z,20.30
2018-06-08T00:11:36.975Z,20.30
2018-06-08T00:14:06.357Z,20.30
2018-06-08T00:16:35.387Z,20.30
2018-06-08T00:19:04.709Z,20.30
2018-06-08T00:21:33.797Z,20.30
2018-06-08T00:24:02.673Z,20.10
2018-06-08T00:28:59.991Z,20.10
2018-06-08T00:31:29.764Z,20.10
2018-06-08T00:33:58.869Z,20.10
2018-06-08T00:36:27.707Z,20.10
2018-06-08T00:38:56.622Z,20.10
2018-06-08T00:41:25.368Z,20.10
2018-06-08T00:43:54.177Z,20.10
2018-06-08T00:46:23.119Z,20.10
2018-06-08T00:48:51.983Z,20.10
2018-06-08T00:51:20.734Z,20.10
2018-06-08T00:53:50.880Z,20.10
2018-06-08T00:56:30.966Z,20.20
2018-06-08T00:58:59.917Z,20.20
2018-06-08T01:01:32.759Z,20.10
2018-06-08T01:04:01.612Z,20.10
2018-06-08T01:09:00.321Z,20.00
2018-06-08T01:11:29.896Z,20.00
2018-06-08T01:13:58.883Z,20.00
2018-06-08T01:16:28.285Z,20.00
2018-06-08T01:18:57.254Z,20.00
2018-06-08T01:21:27.146Z,19.90
2018-06-08T01:23:56.172Z,19.80
2018-06-08T01:26:30.577Z,19.80
2018-06-08T01:29:00.353Z,19.80
2018-06-08T01:36:26.180Z,19.80
2018-06-08T01:41:23.433Z,19.70
2018-06-08T01:43:52.162Z,19.70
2018-06-08T01:48:49.357Z,19.50
2018-06-08T01:51:18.161Z,19.50
2018-06-08T01:53:46.933Z,19.60
2018-06-08T01:56:15.862Z,19.50
2018-06-08T01:58:44.660Z,19.50
2018-06-08T02:01:15.398Z,19.50
2018-06-08T02:03:44.222Z,19.40
2018-06-08T02:06:12.934Z,19.40
2018-06-08T02:08:41.690Z,19.30
2018-06-08T02:11:10.641Z,19.40
2018-06-08T02:13:39.579Z,19.40
2018-06-08T02:16:08.289Z,19.30
2018-06-08T02:18:37.152Z,19.30
2018-06-08T02:21:07.203Z,19.30
2018-06-08T02:23:36.001Z,19.30
2018-06-08T02:26:04.753Z,19.20
2018-06-08T02:28:33.796Z,19.40
2018-06-08T02:31:02.699Z,19.30
2018-06-08T02:36:00.821Z,19.30
2018-06-08T02:38:30.135Z,19.30
2018-06-08T02:40:58.946Z,19.20
2018-06-08T02:43:27.749Z,19.20
2018-06-08T02:48:25.028Z,19.20
2018-06-08T02:50:53.922Z,19.10
2018-06-08T02:53:22.845Z,19.00
2018-06-08T02:55:51.580Z,19.10
2018-06-08T02:58:20.372Z,19.20
2018-06-08T03:00:49.196Z,19.20
2018-06-08T03:03:18.001Z,19.20
2018-06-08T03:05:46.886Z,19.20
2018-06-08T03:08:15.636Z,19.20
2018-06-08T03:10:44.471Z,19.30
2018-06-08T03:13:13.244Z,19.20
2018-06-08T03:15:42.047Z,19.20
2018-06-08T03:18:10.894Z,19.20
2018-06-08T03:20:39.583Z,19.20
2018-06-08T03:23:08.415Z,19.30
2018-06-08T03:28:06.001Z,19.20
2018-06-08T03:30:34.761Z,19.10
2018-06-08T03:33:05.061Z,19.10
2018-06-08T03:35:34.133Z,19.10
2018-06-08T03:38:07.729Z,19.10
2018-06-08T03:40:36.437Z,19.10
2018-06-08T03:43:05.677Z,19.10
2018-06-08T03:45:34.483Z,19.10
2018-06-08T03:48:05.621Z,19.10
2018-06-08T03:50:34.490Z,19.00
2018-06-08T03:55:33.482Z,19.10
2018-06-08T03:58:04.296Z,19.10
2018-06-08T04:00:33.041Z,19.20
2018-06-08T04:03:03.214Z,19.20
2018-06-08T04:05:34.478Z,19.30
2018-06-08T04:08:05.875Z,19.30
2018-06-08T04:10:34.985Z,19.40
2018-06-08T04:13:06.694Z,19.30
2018-06-08T04:15:35.474Z,19.30
2018-06-08T04:18:04.429Z,19.30
2018-06-08T04:20:33.280Z,19.40
2018-06-08T04:23:02.119Z,19.40
2018-06-08T04:25:30.948Z,19.40
2018-06-08T04:27:59.765Z,19.40
2018-06-08T04:30:28.789Z,19.40
2018-06-08T04:32:57.558Z,19.40
2018-06-08T04:35:26.435Z,19.50
2018-06-08T04:37:55.310Z,19.50
2018-06-08T04:40:24.173Z,19.60
2018-06-08T04:42:53.147Z,19.60
2018-06-08T04:45:21.928Z,19.70
2018-06-08T04:47:50.742Z,19.80
2018-06-08T04:50:19.564Z,19.80
2018-06-08T04:52:48.387Z,19.80
2018-06-08T04:55:17.172Z,19.90
2018-06-08T04:57:46.961Z,20.00
2018-06-08T05:00:15.868Z,20.00
2018-06-08T05:02:44.682Z,20.10
2018-06-08T05:05:13.553Z,20.20
2018-06-08T05:07:42.389Z,20.30
2018-06-08T05:10:11.471Z,20.40
2018-06-08T05:12:40.554Z,20.50
2018-06-08T05:15:09.590Z,20.60
2018-06-08T05:17:38.638Z,20.60
2018-06-08T05:20:07.736Z,20.70
2018-06-08T05:22:36.982Z,20.80
2018-06-08T05:25:06.259Z,20.80
2018-06-08T05:27:35.341Z,20.80
2018-06-08T05:30:08.991Z,21.00
2018-06-08T05:32:38.745Z,21.10
2018-06-08T05:35:07.831Z,21.10
2018-06-08T05:37:36.739Z,21.30
2018-06-08T05:40:07.390Z,21.30
2018-06-08T05:42:36.168Z,21.40
2018-06-08T05:45:07.321Z,21.40
2018-06-08T05:47:36.690Z,21.30
2018-06-08T05:50:06.118Z,21.40
2018-06-08T05:52:35.074Z,21.30
2018-06-08T05:55:05.337Z,21.40
2018-06-08T05:57:34.423Z,21.40
2018-06-08T06:00:03.686Z,21.40
2018-06-08T06:02:32.729Z,21.50
2018-06-08T06:05:01.572Z,21.40
2018-06-08T06:07:30.311Z,21.50
2018-06-08T06:09:59.413Z,21.50
2018-06-08T06:12:30.826Z,21.50
2018-06-08T06:14:59.805Z,21.30
2018-06-08T06:17:28.822Z,21.30
2018-06-08T06:19:57.740Z,21.30
2018-06-08T06:22:28.431Z,21.30
2018-06-08T06:24:57.206Z,21.40
2018-06-08T06:27:26.008Z,21.40
2018-06-08T06:29:54.892Z,21.50
2018-06-08T06:32:23.954Z,21.50
2018-06-08T06:34:53.203Z,21.50
2018-06-08T06:37:22.518Z,21.50
2018-06-08T06:39:51.409Z,21.50
2018-06-08T06:42:20.376Z,21.50
2018-06-08T06:44:49.704Z,21.60
2018-06-08T06:47:18.944Z,21.60
2018-06-08T06:49:47.741Z,21.60
2018-06-08T06:52:16.599Z,21.80
2018-06-08T06:54:45.423Z,22.00
2018-06-08T06:57:14.367Z,22.20
2018-06-08T06:59:43.344Z,22.50
2018-06-08T07:02:12.242Z,22.70
2018-06-08T07:04:41.547Z,22.70
2018-06-08T07:07:10.455Z,22.90
2018-06-08T07:09:39.451Z,23.00
2018-06-08T07:12:09.256Z,23.30
2018-06-08T07:14:38.316Z,23.40
2018-06-08T07:17:10.860Z,23.50
2018-06-08T07:19:45.804Z,23.70
2018-06-08T07:22:15.649Z,23.80
2018-06-08T07:24:45.103Z,23.80
2018-06-08T07:27:13.984Z,24.10
2018-06-08T07:29:42.829Z,24.30
2018-06-08T07:32:11.847Z,24.60
2018-06-08T07:34:40.768Z,24.90
2018-06-08T07:37:09.652Z,25.20
2018-06-08T07:39:38.488Z,25.30
2018-06-08T07:42:07.950Z,25.40
2018-06-08T07:44:37.244Z,25.70
2018-06-08T07:47:09.715Z,26.20
2018-06-08T07:49:38.662Z,26.20
2018-06-08T07:52:08.269Z,26.40
2018-06-08T07:54:37.560Z,26.50
2018-06-08T07:57:10.861Z,26.80
2018-06-08T07:59:39.968Z,27.10
2018-06-08T08:02:09.280Z,27.00
2018-06-08T08:04:38.145Z,26.80
2018-06-08T08:07:07.355Z,26.60
2018-06-08T08:09:36.355Z,26.40
2018-06-08T08:12:05.941Z,26.50
2018-06-08T08:14:35.044Z,26.70
2018-06-08T08:17:05.802Z,26.70
2018-06-08T08:19:35.034Z,26.80
2018-06-08T08:22:05.718Z,26.70
2018-06-08T08:24:34.847Z,26.40
2018-06-08T08:27:06.052Z,26.60
2018-06-08T08:29:35.246Z,27.00
2018-06-08T08:32:06.098Z,28.20
2018-06-08T08:34:35.179Z,28.70
2018-06-08T08:37:06.502Z,28.50
2018-06-08T08:39:35.440Z,28.40
2018-06-08T08:42:04.724Z,28.80
2018-06-08T08:44:33.848Z,28.60
2018-06-08T08:47:02.914Z,29.10
2018-06-08T08:49:31.850Z,30.10
2018-06-08T08:52:00.845Z,30.80
2018-06-08T08:54:29.705Z,30.40
2018-06-08T08:56:58.738Z,29.60
2018-06-08T08:59:27.772Z,29.60
2018-06-08T09:01:56.783Z,29.90
2018-06-08T09:04:25.813Z,29.90
2018-06-08T09:06:54.873Z,29.20
2018-06-08T09:09:23.761Z,28.70
2018-06-08T09:11:52.841Z,28.30
2018-06-08T09:14:21.769Z,27.90
2018-06-08T09:16:50.968Z,27.30
2018-06-08T09:19:19.964Z,27.20
2018-06-08T09:21:48.940Z,27.30
2018-06-08T09:24:17.937Z,27.40
2018-06-08T09:26:47.211Z,27.40
2018-06-08T09:29:16.239Z,27.70
2018-06-08T09:31:45.378Z,27.40
2018-06-08T09:34:14.499Z,26.60
2018-06-08T09:36:43.393Z,26.70
2018-06-08T09:39:12.481Z,27.10
2018-06-08T09:41:41.468Z,27.50
2018-06-08T09:44:11.000Z,28.70
2018-06-08T09:46:39.998Z,29.60
2018-06-08T09:49:08.974Z,30.40
2018-06-08T09:51:38.794Z,30.80
2018-06-08T09:54:08.020Z,31.80
2018-06-08T09:56:37.797Z,32.30
2018-06-08T09:59:07.410Z,32.30
2018-06-08T10:01:37.043Z,32.20
2018-06-08T10:04:06.464Z,31.60
2018-06-08T10:06:35.303Z,31.00
2018-06-08T10:09:06.307Z,30.30
2018-06-08T10:11:35.756Z,30.30
2018-06-08T10:14:05.578Z,30.90
2018-06-08T10:16:34.706Z,31.40
2018-06-08T10:19:04.586Z,31.50
2018-06-08T10:21:33.682Z,32.40
2018-06-08T10:24:02.918Z,32.80
2018-06-08T10:26:31.838Z,33.20
2018-06-08T10:29:01.825Z,32.50
2018-06-08T10:31:30.845Z,32.40
2018-06-08T10:33:59.669Z,32.60
2018-06-08T10:36:28.625Z,32.50
2018-06-08T10:38:57.541Z,32.60
2018-06-08T10:41:26.543Z,33.00
2018-06-08T10:43:55.428Z,33.30
2018-06-08T10:46:24.606Z,33.50
2018-06-08T10:48:53.974Z,33.20
2018-06-08T10:51:22.941Z,32.90
2018-06-08T10:53:51.841Z,32.60
2018-06-08T10:56:20.727Z,32.80
2018-06-08T10:58:49.756Z,32.80
2018-06-08T11:01:18.866Z,32.10
2018-06-08T11:03:47.625Z,31.20
2018-06-08T11:06:16.785Z,31.20
2018-06-08T11:08:45.891Z,30.90
2018-06-08T11:11:14.945Z,31.30
2018-06-08T11:13:44.073Z,31.40
2018-06-08T11:16:18.428Z,31.10
2018-06-08T11:18:47.376Z,30.60
2018-06-08T11:21:16.680Z,30.20
2018-06-08T11:23:45.876Z,29.40
2018-06-08T11:26:14.919Z,28.70
2018-06-08T11:28:44.260Z,28.70
2018-06-08T11:31:13.363Z,28.60
2018-06-08T11:33:42.639Z,28.50
2018-06-08T11:36:11.740Z,28.40
2018-06-08T11:38:41.165Z,28.40
2018-06-08T11:41:10.321Z,28.10
2018-06-08T11:43:39.551Z,27.90
2018-06-08T11:46:08.600Z,27.60
2018-06-08T11:48:37.627Z,27.50
2018-06-08T11:51:07.100Z,27.50
2018-06-08T11:53:36.329Z,27.40
2018-06-08T11:56:05.600Z,27.20
2018-06-08T11:58:34.524Z,27.00
2018-06-08T12:01:03.557Z,27.10
2018-06-08T12:03:33.687Z,26.90
2018-06-08T12:06:02.798Z,27.10
2018-06-08T12:08:31.928Z,27.20
2018-06-08T12:11:05.357Z,27.30
2018-06-08T12:13:34.555Z,27.50
2018-06-08T12:16:03.637Z,27.50
2018-06-08T12:18:32.775Z,27.50
2018-06-08T12:21:02.156Z,27.40
2018-06-08T12:23:31.342Z,27.50
2018-06-08T12:26:00.430Z,27.60
2018-06-08T12:28:29.533Z,27.60
2018-06-08T12:30:58.836Z,27.60
2018-06-08T12:33:28.145Z,27.70
2018-06-08T12:35:57.211Z,27.60
2018-06-08T12:38:28.116Z,27.70
2018-06-08T12:40:57.472Z,27.80
2018-06-08T12:43:26.371Z,27.70
2018-06-08T12:45:55.666Z,27.60
2018-06-08T12:48:24.645Z,27.40
2018-06-08T12:50:53.869Z,27.30
2018-06-08T12:53:22.735Z,27.20
2018-06-08T12:55:51.926Z,27.10
2018-06-08T12:58:21.027Z,27.20
2018-06-08T13:00:50.116Z,27.00
2018-06-08T13:03:19.015Z,27.20
2018-06-08T13:05:48.032Z,27.20
2018-06-08T13:08:17.529Z,27.40
2018-06-08T13:10:53.887Z,27.50
2018-06-08T13:13:24.032Z,27.40
2018-06-08T13:15:53.281Z,27.20
2018-06-08T13:18:22.185Z,27.20
2018-06-08T13:20:51.589Z,27.20
2018-06-08T13:23:20.600Z,27.30
2018-06-08T13:25:49.934Z,27.10
2018-06-08T13:28:18.990Z,27.20
2018-06-08T13:30:48.406Z,27.50
2018-06-08T13:33:17.306Z,27.50
2018-06-08T13:35:46.204Z,27.70
2018-06-08T13:38:15.558Z,27.80
2018-06-08T13:40:48.298Z,27.80
2018-06-08T13:43:17.451Z,27.60
2018-06-08T13:45:46.761Z,27.50
2018-06-08T13:48:16.150Z,27.30
2018-06-08T13:50:45.390Z,27.20
2018-06-08T13:53:14.895Z,27.30
2018-06-08T13:55:44.047Z,27.00
2018-06-08T13:58:13.075Z,27.00
2018-06-08T14:00:42.010Z,26.80
2018-06-08T14:03:11.077Z,26.80
2018-06-08T14:05:40.058Z,26.80
2018-06-08T14:08:09.114Z,26.80
2018-06-08T14:10:38.021Z,26.90
2018-06-08T14:13:07.319Z,26.80
2018-06-08T14:15:36.495Z,26.80
2018-06-08T14:18:05.613Z,26.80
2018-06-08T14:20:34.650Z,26.70
2018-06-08T14:23:03.733Z,26.60
2018-06-08T14:25:37.672Z,26.60
2018-06-08T14:28:06.636Z,26.70
2018-06-08T14:30:36.012Z,26.80
2018-06-08T14:33:06.181Z,26.80
2018-06-08T14:35:35.232Z,26.70
2018-06-08T14:38:04.388Z,26.80
2018-06-08T14:40:33.302Z,26.80
2018-06-08T14:43:03.379Z,26.90
2018-06-08T14:45:33.457Z,27.00
2018-06-08T14:48:02.715Z,27.00
2018-06-08T14:50:31.964Z,27.00
2018-06-08T14:53:00.851Z,27.00
2018-06-08T14:55:30.082Z,27.00
2018-06-08T14:57:59.260Z,27.00
2018-06-08T15:00:28.215Z,27.00
2018-06-08T15:02:57.204Z,27.10
2018-06-08T15:05:26.339Z,27.10
2018-06-08T15:07:55.298Z,26.90
2018-06-08T15:10:24.337Z,27.00
2018-06-08T15:12:53.396Z,27.10
2018-06-08T15:15:22.697Z,27.20
2018-06-08T15:17:51.797Z,27.20
2018-06-08T15:20:20.966Z,27.10
2018-06-08T15:22:50.062Z,27.00
2018-06-08T15:25:19.160Z,26.70
2018-06-08T15:27:47.987Z,26.80
2018-06-08T15:30:17.165Z,26.80
2018-06-08T15:32:46.104Z,26.80
2018-06-08T15:35:15.052Z,26.80
2018-06-08T15:37:44.248Z,26.90
2018-06-08T15:40:13.279Z,26.90
2018-06-08T15:42:42.368Z,26.90
2018-06-08T15:45:11.422Z,26.80
2018-06-08T15:47:42.407Z,26.90
2018-06-08T15:50:11.674Z,26.70
2018-06-08T15:52:40.861Z,26.50
2018-06-08T15:55:09.862Z,26.40
2018-06-08T15:57:39.001Z,26.20
2018-06-08T16:00:07.941Z,25.90
2018-06-08T16:02:36.845Z,25.70
2018-06-08T16:05:07.281Z,25.50
2018-06-08T16:07:36.249Z,25.50
2018-06-08T16:10:05.763Z,25.60
2018-06-08T16:12:34.847Z,25.60
2018-06-08T16:15:03.918Z,25.70
2018-06-08T16:17:33.474Z,25.70
2018-06-08T16:20:02.459Z,25.80
2018-06-08T16:22:31.776Z,25.90
2018-06-08T16:25:01.148Z,26.00
2018-06-08T16:27:30.274Z,26.10
2018-06-08T16:29:59.492Z,26.10
2018-06-08T16:32:29.058Z,26.20
2018-06-08T16:34:58.195Z,26.20
2018-06-08T16:37:27.330Z,26.10
2018-06-08T16:39:56.384Z,26.20
2018-06-08T16:42:25.441Z,26.20
2018-06-08T16:44:54.491Z,26.20
2018-06-08T16:47:23.710Z,26.30
2018-06-08T16:49:52.634Z,26.20
2018-06-08T16:52:21.874Z,26.20
2018-06-08T16:54:50.884Z,26.20
2018-06-08T16:57:20.203Z,26.30
2018-06-08T16:59:49.302Z,26.10
2018-06-08T17:02:18.332Z,26.10
2018-06-08T17:04:48.017Z,26.10
2018-06-08T17:07:16.895Z,26.10
2018-06-08T17:09:46.403Z,26.10
2018-06-08T17:12:15.523Z,26.10
2018-06-08T17:14:45.500Z,26.10
2018-06-08T17:17:14.592Z,26.10
2018-06-08T17:19:43.608Z,26.00
2018-06-08T17:22:12.605Z,26.10
2018-06-08T17:24:41.485Z,26.00
2018-06-08T17:27:10.775Z,26.00
2018-06-08T17:29:39.588Z,26.00
2018-06-08T17:32:08.687Z,25.90
2018-06-08T17:34:38.698Z,25.90
2018-06-08T17:37:07.556Z,25.90
2018-06-08T17:39:47.543Z,25.80
2018-06-08T17:42:17.909Z,25.90
2018-06-08T17:44:47.006Z,25.80
2018-06-08T17:47:15.893Z,25.80
2018-06-08T17:49:45.059Z,25.70
2018-06-08T17:52:14.406Z,25.60
2018-06-08T17:54:43.308Z,25.70
2018-06-08T17:57:12.179Z,25.70
2018-06-08T17:59:41.058Z,25.70
2018-06-08T18:02:10.234Z,25.60
2018-06-08T18:04:39.389Z,25.60
2018-06-08T18:07:09.162Z,25.50
2018-06-08T18:09:38.324Z,25.50
2018-06-08T18:12:07.798Z,25.50
2018-06-08T18:14:37.449Z,25.60
2018-06-08T18:17:06.440Z,25.50
2018-06-08T18:19:36.451Z,25.40
2018-06-08T18:22:05.945Z,25.40
2018-06-08T18:24:34.826Z,25.40
2018-06-08T18:27:03.883Z,25.20
2018-06-08T18:29:32.737Z,25.30
2018-06-08T18:32:01.934Z,25.30
2018-06-08T18:34:31.371Z,25.30
2018-06-08T18:37:00.328Z,25.20
2018-06-08T18:39:29.692Z,25.10
2018-06-08T18:41:58.537Z,25.10
2018-06-08T18:44:27.470Z,24.90
2018-06-08T18:46:56.386Z,24.90
2018-06-08T18:49:25.319Z,24.80
2018-06-08T18:51:54.554Z,24.80
2018-06-08T18:54:23.484Z,24.70
2018-06-08T18:56:52.658Z,24.60
2018-06-08T18:59:21.469Z,24.50
2018-06-08T19:01:50.381Z,24.40
2018-06-08T19:04:19.454Z,24.30
2018-06-08T19:06:50.786Z,24.20
2018-06-08T19:09:21.512Z,24.10
2018-06-08T19:11:50.914Z,24.10
2018-06-08T19:14:19.919Z,24.00
2018-06-08T19:16:49.346Z,23.80
2018-06-08T19:19:18.251Z,23.70
2018-06-08T19:21:50.334Z,23.70
2018-06-08T19:24:22.000Z,23.60
2018-06-08T19:26:51.069Z,23.40
2018-06-08T19:29:20.102Z,23.50
2018-06-08T19:31:48.940Z,23.40
2018-06-08T19:34:17.837Z,23.40
2018-06-08T19:36:46.839Z,23.40
2018-06-08T19:39:15.796Z,23.30
2018-06-08T19:41:44.904Z,23.20
2018-06-08T19:44:13.813Z,23.10
2018-06-08T19:46:42.761Z,23.00
2018-06-08T19:49:11.967Z,23.00
2018-06-08T19:52:11.670Z,23.00
2018-06-08T19:54:41.646Z,22.90
2018-06-08T19:57:13.275Z,22.80
2018-06-08T19:59:42.170Z,22.80
2018-06-08T20:02:11.071Z,22.70
2018-06-08T20:04:40.175Z,22.70
2018-06-08T20:07:09.121Z,22.70
2018-06-08T20:09:38.322Z,22.70
2018-06-08T20:12:07.393Z,22.70
2018-06-08T20:14:36.265Z,22.60
2018-06-08T20:17:05.300Z,22.50
2018-06-08T20:19:34.332Z,22.50
2018-06-08T20:22:03.504Z,22.40
2018-06-08T20:24:32.621Z,22.50
2018-06-08T20:27:01.953Z,22.30
2018-06-08T20:29:30.793Z,22.40
2018-06-08T20:31:59.568Z,22.30
2018-06-08T20:34:28.940Z,22.40
2018-06-08T20:36:57.799Z,22.40
2018-06-08T20:39:26.852Z,22.30
2018-06-08T20:41:55.838Z,22.20
2018-06-08T20:44:24.629Z,22.00
2018-06-08T20:46:53.617Z,22.10
2018-06-08T20:49:22.353Z,22.10
2018-06-08T20:51:51.460Z,22.00
2018-06-08T20:54:20.333Z,22.00
2018-06-08T20:57:59.765Z,22.00
2018-06-08T21:00:28.629Z,21.90
2018-06-08T21:02:57.526Z,21.80
2018-06-08T21:05:28.380Z,21.80
2018-06-08T21:07:57.327Z,21.70
2018-06-08T21:10:26.254Z,21.70
2018-06-08T21:12:55.287Z,21.70
2018-06-08T21:15:24.275Z,21.60
2018-06-08T21:17:53.523Z,21.70
2018-06-08T21:20:22.818Z,21.70
2018-06-08T21:22:51.630Z,21.70
2018-06-08T21:25:20.606Z,21.60
2018-06-08T21:27:50.631Z,21.60
2018-06-08T21:30:19.964Z,21.50
2018-06-08T21:32:48.974Z,21.50
2018-06-08T21:35:18.324Z,21.40
2018-06-08T21:37:48.400Z,21.40
2018-06-08T21:40:17.427Z,21.40
2018-06-08T21:42:46.589Z,21.40
2018-06-08T21:45:15.577Z,21.30
2018-06-08T21:47:44.666Z,21.30
2018-06-08T21:50:17.896Z,21.30
2018-06-08T21:52:46.771Z,21.30
2018-06-08T21:55:16.823Z,21.20
2018-06-08T21:57:45.662Z,21.10
2018-06-08T22:00:17.082Z,21.20
2018-06-08T22:02:46.225Z,21.10
2018-06-08T22:05:16.844Z,21.10
2018-06-08T22:07:45.727Z,21.10
2018-06-08T22:10:15.017Z,21.00
2018-06-08T22:12:44.200Z,21.00
2018-06-08T22:15:18.531Z,21.00
2018-06-08T22:17:47.727Z,21.00
2018-06-08T22:20:16.782Z,21.00
2018-06-08T22:22:46.002Z,21.00
2018-06-08T22:25:14.903Z,21.00
2018-06-08T22:27:43.748Z,20.90
2018-06-08T22:30:12.860Z,20.90
2018-06-08T22:32:41.757Z,20.90
2018-06-08T22:35:10.547Z,20.90
2018-06-08T22:37:39.322Z,20.80
2018-06-08T22:40:09.100Z,20.70
2018-06-08T22:42:38.236Z,20.70
2018-06-08T22:45:07.669Z,20.70
2018-06-08T22:47:36.540Z,20.70
2018-06-08T22:50:07.622Z,20.70
2018-06-08T22:52:36.551Z,20.70
2018-06-08T22:55:09.155Z,20.70
2018-06-08T22:57:38.174Z,20.60
2018-06-08T23:00:07.326Z,20.60
2018-06-08T23:02:36.138Z,20.60
2018-06-08T23:05:05.219Z,20.50
2018-06-08T23:07:34.088Z,20.50
2018-06-08T23:10:02.800Z,20.50
2018-06-08T23:12:31.891Z,20.50
2018-06-08T23:15:00.665Z,20.50
2018-06-08T23:17:29.487Z,20.50
2018-06-08T23:20:00.061Z,20.50
2018-06-08T23:22:29.048Z,20.40
2018-06-08T23:24:57.952Z,20.40
2018-06-08T23:27:26.673Z,20.40
2018-06-08T23:29:55.532Z,20.40
2018-06-08T23:32:24.290Z,20.40
2018-06-08T23:34:54.439Z,20.30
2018-06-08T23:37:23.502Z,20.40
2018-06-08T23:39:52.249Z,20.30
2018-06-08T23:42:21.120Z,20.30
2018-06-08T23:44:49.828Z,20.20
2018-06-08T23:47:18.818Z,20.10
2018-06-08T23:52:16.181Z,20.00
2018-06-08T23:54:45.028Z,20.00
2018-06-08T23:57:13.870Z,20.00
2018-06-08T23:59:42.733Z,20.00
